Thunder radar more information blitzortung!


Radar de pluja more information rain snow radar


Visita la nostra xarxa de llocs de meteo:

Template documentation
and downloads

And another site



No particular awareness of the weather is required.    There are no Weather-warnings

Pagina Historial Weather Underground text

Diari Resum Juliol 27, 2017 Unitats:  Imperial    Mètric   Tant
« Previous Dia
SegĂźent Dia »
Diari Setmana Mensual Anual Personalitzada
  Maxima: Minima: Media:
Temperatura: TemperatureC °F 18.0 °F 27.3 °F
Punt de rosada: DewpointC °F 14.0 °F 17.5 °F
Humitat: Humidity % 42 % 57 %
Wind Speed: WindSpeedKMH mph 0.0 mph 6 mph
RĂ fegues de vent: WindSpeedGustKMH mph - -
Vent:- - SSW
Pression baro: PressurehPa in 1009.0 in -
Precipitacions: 0.0 in    
Historical Graphs
 
 
Dades de taula per Juliol 27, 2017
Temps Temperatura Punt de rosada Pression baro Vent Wind Speed RĂ fegues de vent Humitat Rainfall Rate (Hourly)
TemperatureC °F DewpointC °F PressurehPa in Calm     Humidity % HourlyPrecipMM in
00:01 21.7 °F 14.3 °F 1013.8 in NE 1.9 mph 1.9 mph 63 % 0.0 in
00:05 18.7 °F 14.4 °F 1013.8 in Calm     76 % 0.0 in
00:15 18.4 °F 14.1 °F 1013.8 in Calm   3.2 mph 76 % 0.0 in
00:25 18.4 °F 14.1 °F 1013.8 in Calm     76 % 0.0 in
00:35 18.4 °F 14.3 °F 1013.8 in SW 1.6 mph 1.6 mph 77 % 0.0 in
00:45 18.2 °F 14.1 °F 1013.8 in Calm   1.6 mph 77 % 0.0 in
00:55 18.1 °F 14.0 °F 1013.8 in Calm   1.6 mph 77 % 0.0 in
01:05 18.1 °F 14.2 °F 1013.8 in SSW 1.6 mph 1.6 mph 78 % 0.0 in
01:15 18.0 °F 14.1 °F 1013.8 in Calm     78 % 0.0 in
01:25 18.0 °F 14.1 °F 1013.8 in Calm     78 % 0.0 in
01:35 18.0 °F 14.1 °F 1013.8 in Calm     78 % 0.0 in
01:45 18.0 °F 14.1 °F 1013.8 in Calm     78 % 0.0 in
01:55 18.0 °F 14.1 °F 1013.8 in Calm     78 % 0.0 in
02:05 18.1 °F 14.4 °F 1013.8 in Calm     79 % 0.0 in
02:15 18.4 °F 14.7 °F 1013.8 in Calm     79 % 0.0 in
02:25 18.6 °F 14.7 °F 1013.8 in Calm   3.2 mph 78 % 0.0 in
02:35 18.6 °F 14.7 °F 1013.8 in SSW 1.6 mph 3.2 mph 78 % 0.0 in
02:45 18.8 °F 14.9 °F 1013.8 in SW 1.6 mph 3.2 mph 78 % 0.0 in
02:55 18.6 °F 14.7 °F 1013.8 in Calm   3.2 mph 78 % 0.0 in
03:05 18.9 °F 15.0 °F 1013.8 in WSW 1.6 mph 3.2 mph 78 % 0.0 in
03:15 19.1 °F 14.8 °F 1013.8 in WSW 1.6 mph 3.2 mph 76 % 0.0 in
03:25 19.6 °F 15.3 °F 1012.8 in Calm   3.2 mph 76 % 0.0 in
03:35 20.3 °F 15.5 °F 1013.8 in South 1.6 mph 3.2 mph 74 % 0.0 in
03:45 21.1 °F 15.8 °F 1013.8 in ENE 1.6 mph 3.2 mph 72 % 0.0 in
03:55 21.6 °F 15.9 °F 1013.8 in NE 1.6 mph 3.2 mph 70 % 0.0 in
04:05 22.0 °F 15.8 °F 1013.8 in ENE 3.2 mph 3.2 mph 68 % 0.0 in
04:15 22.9 °F 16.4 °F 1013.8 in ENE 1.6 mph 1.6 mph 67 % 0.0 in
04:25 23.4 °F 16.7 °F 1013.8 in Calm   1.6 mph 66 % 0.0 in
04:35 23.5 °F 16.6 °F 1013.8 in ENE 1.6 mph 4.8 mph 65 % 0.0 in
04:45 24.0 °F 16.5 °F 1013.8 in SE 1.6 mph 4.8 mph 63 % 0.0 in
04:55 24.2 °F 16.4 °F 1013.8 in SSE 1.6 mph 4.8 mph 62 % 0.0 in
05:05 24.8 °F 17.3 °F 1013.8 in ESE 1.6 mph 4.8 mph 63 % 0.0 in
05:15 24.3 °F 16.3 °F 1013.8 in East 4.8 mph 8.0 mph 61 % 0.0 in
05:25 24.8 °F 16.8 °F 1012.8 in SE 3.2 mph 4.8 mph 61 % 0.0 in
10:25 25.2 °F 16.6 °F 1012.8 in SSE 7.4 mph 7.4 mph 59 % 0.0 in
10:30 25.8 °F 17.2 °F 1012.8 in SE 3.9 mph   59 % 0.0 in
10:35 25.4 °F 16.8 °F 1012.8 in ESE 5.6 mph 5.6 mph 59 % 0.0 in
10:40 26.0 °F 17.4 °F 1012.8 in ESE 1.9 mph 2.3 mph 59 % 0.0 in
10:45 26.1 °F 17.2 °F 1012.8 in SSW 5.6 mph 5.6 mph 58 % 0.0 in
10:50 26.6 °F 17.4 °F 1013.8 in SW 2.3 mph 2.3 mph 57 % 0.0 in
10:55 26.9 °F 17.4 °F 1013.8 in NE 9.3 mph 9.3 mph 56 % 0.0 in
11:00 26.6 °F 17.1 °F 1013.8 in East 5.8 mph 5.8 mph 56 % 0.0 in
11:05 26.4 °F 16.9 °F 1013.8 in NW 3.7 mph 3.7 mph 56 % 0.0 in
11:06 26.4 °F 16.9 °F 1013.8 in NW 3.7 mph 3.7 mph 56 % 0.0 in
11:11 26.9 °F 17.4 °F 1013.8 in SW 6.9 mph 6.9 mph 56 % 0.0 in
11:16 27.0 °F 16.9 °F 1013.8 in NNW 9.3 mph 9.3 mph 54 % 0.0 in
11:21 27.5 °F 17.1 °F 1013.8 in SSE 3.7 mph 3.7 mph 53 % 0.0 in
11:26 27.9 °F 17.1 °F 1013.8 in SW 7.4 mph 7.4 mph 52 % 0.0 in
11:31 28.6 °F 17.8 °F 1013.8 in WSW 4.7 mph 4.7 mph 52 % 0.0 in
11:36 28.2 °F 17.1 °F 1012.8 in South 3.7 mph 3.7 mph 51 % 0.0 in
11:41 27.9 °F 16.8 °F 1012.8 in SW 9.5 mph 9.5 mph 51 % 0.0 in
11:46 28.9 °F 17.4 °F 1012.8 in SW 3.7 mph 3.7 mph 50 % 0.0 in
11:51 29.0 °F 17.2 °F 1012.8 in WSW 9.3 mph 9.3 mph 49 % 0.0 in
11:56 29.7 °F 17.5 °F 1012.8 in SW 11.9 mph 11.9 mph 48 % 0.0 in
12:01 29.9 °F 17.4 °F 1012.8 in WSW 3.7 mph 3.7 mph 47 % 0.0 in
12:06 30.3 °F 17.7 °F 1012.8 in SSW 5.6 mph 5.6 mph 47 % 0.0 in
12:11 29.7 °F 17.2 °F 1012.8 in WNW 13.0 mph 13.0 mph 47 % 0.0 in
12:16 29.4 °F 16.6 °F 1012.8 in SW 7.6 mph 7.6 mph 46 % 0.0 in
12:21 29.5 °F 16.7 °F 1012.8 in South 11.1 mph 11.1 mph 46 % 0.0 in
12:26 29.7 °F 16.8 °F 1012.8 in South 9.5 mph 9.5 mph 46 % 0.0 in
12:31 30.4 °F 17.1 °F 1012.8 in SSW 11.1 mph 11.1 mph 45 % 0.0 in
12:36 30.6 °F 17.3 °F 1012.8 in SW 5.8 mph 5.8 mph 45 % 0.0 in
12:41 30.8 °F 17.5 °F 1012.8 in SSE 7.4 mph 7.4 mph 45 % 0.0 in
12:46 30.7 °F 17.1 °F 1012.8 in WSW 13.0 mph 13.0 mph 44 % 0.0 in
12:51 31.5 °F 17.8 °F 1011.7 in SW 9.3 mph 9.3 mph 44 % 0.0 in
12:56 31.8 °F 18.1 °F 1011.7 in West 5.6 mph 5.6 mph 44 % 0.0 in
13:01 31.6 °F 17.8 °F 1011.7 in SW 7.4 mph 7.4 mph 44 % 0.0 in
13:06 31.9 °F 17.4 °F 1011.7 in SSE 6.1 mph 6.1 mph 42 % 0.0 in
13:11 31.5 °F 17.1 °F 1011.7 in South 7.4 mph 7.4 mph 42 % 0.0 in
13:16 31.7 °F 17.2 °F 1011.7 in NE 11.1 mph 11.1 mph 42 % 0.0 in
13:21 31.9 °F 17.8 °F 1010.7 in SSW 3.7 mph 3.7 mph 43 % 0.0 in
13:26 32.7 °F 18.5 °F 1010.7 in South 5.6 mph 5.6 mph 43 % 0.0 in
13:31 33.3 °F 18.7 °F 1010.7 in SSE 6.9 mph 6.9 mph 42 % 0.0 in
13:36 32.0 °F 17.8 °F 1011.7 in ESE 11.4 mph 11.4 mph 43 % 0.0 in
13:41 31.6 °F 17.8 °F 1011.7 in WSW 13.0 mph 13.0 mph 44 % 0.0 in
13:46 32.3 °F 18.5 °F 1011.7 in WNW 7.9 mph 7.9 mph 44 % 0.0 in
13:51 32.9 °F 19.1 °F 1011.7 in SSW 10.0 mph 10.0 mph 44 % 0.0 in
13:56 32.8 °F 18.6 °F 1011.7 in SSW 9.3 mph 9.3 mph 43 % 0.0 in
14:01 33.0 °F 18.8 °F 1011.7 in SW 9.3 mph 9.3 mph 43 % 0.0 in
14:06 32.6 °F 18.4 °F 1011.7 in SW 9.5 mph 9.5 mph 43 % 0.0 in
14:11 32.2 °F 18.1 °F 1011.7 in SW 13.0 mph 13.0 mph 43 % 0.0 in
14:16 32.0 °F 17.8 °F 1011.7 in SSW 13.0 mph 13.0 mph 43 % 0.0 in
14:21 32.0 °F 18.2 °F 1011.7 in WSW 13.0 mph 13.0 mph 44 % 0.0 in
14:26 32.7 °F 18.8 °F 1011.7 in SW 11.9 mph 11.9 mph 44 % 0.0 in
14:31 31.8 °F 18.1 °F 1011.7 in SW 13.0 mph 13.0 mph 44 % 0.0 in
14:36 32.2 °F 18.4 °F 1011.7 in WSW 14.8 mph 14.8 mph 44 % 0.0 in
14:41 32.2 °F 18.4 °F 1011.7 in SSW 13.0 mph 13.0 mph 44 % 0.0 in
14:46 32.9 °F 19.1 °F 1011.7 in WSW 9.3 mph 9.3 mph 44 % 0.0 in
14:51 32.9 °F 19.1 °F 1011.7 in SSE 3.7 mph 3.7 mph 44 % 0.0 in
14:56 33.0 °F 18.8 °F 1011.7 in WSW 9.3 mph 9.3 mph 43 % 0.0 in
15:01 33.1 °F 19.2 °F 1011.7 in WNW 7.4 mph 7.4 mph 44 % 0.0 in
15:06 33.0 °F 19.1 °F 1011.7 in WSW 15.6 mph 15.6 mph 44 % 0.0 in
15:11 32.7 °F 18.8 °F 1011.7 in West 14.8 mph 14.8 mph 44 % 0.0 in
15:16 32.8 °F 18.9 °F 1011.7 in SW 5.6 mph 5.6 mph 44 % 0.0 in
15:21 33.1 °F 19.2 °F 1010.7 in SW 11.1 mph 11.1 mph 44 % 0.0 in
15:26 32.8 °F 18.9 °F 1010.7 in SSW 9.3 mph 9.3 mph 44 % 0.0 in
15:31 33.2 °F 18.9 °F 1010.7 in WSW 14.8 mph 14.8 mph 43 % 0.0 in
15:36 32.7 °F 18.8 °F 1010.7 in South 14.8 mph 14.8 mph 44 % 0.0 in
15:41 32.2 °F 18.4 °F 1010.7 in ESE 9.3 mph 9.3 mph 44 % 0.0 in
15:46 32.7 °F 18.8 °F 1010.7 in SSW 11.1 mph 11.1 mph 44 % 0.0 in
15:51 32.4 °F 18.9 °F 1010.7 in South 7.4 mph 7.4 mph 45 % 0.0 in
15:56 32.4 °F 18.9 °F 1010.7 in SW 14.8 mph 14.8 mph 45 % 0.0 in
16:01 32.5 °F 19.1 °F 1010.7 in SW 13.0 mph 13.0 mph 45 % 0.0 in
16:06 32.1 °F 18.7 °F 1010.7 in SE 12.6 mph 12.6 mph 45 % 0.0 in
16:11 32.5 °F 19.1 °F 1010.7 in SW 13.0 mph 13.0 mph 45 % 0.0 in
16:16 32.4 °F 18.9 °F 1010.7 in SW 5.6 mph 5.8 mph 45 % 0.0 in
16:21 32.3 °F 18.8 °F 1010.7 in SW 7.4 mph 7.4 mph 45 % 0.0 in
16:26 32.5 °F 19.1 °F 1010.7 in SSW 11.1 mph 11.1 mph 45 % 0.0 in
16:31 32.2 °F 18.8 °F 1010.7 in South 16.9 mph 16.9 mph 45 % 0.0 in
16:36 32.2 °F 18.4 °F 1010.7 in West 8.7 mph 8.7 mph 44 % 0.0 in
16:41 32.1 °F 18.3 °F 1010.7 in SSE 13.0 mph 13.0 mph 44 % 0.0 in
16:46 32.3 °F 18.5 °F 1010.7 in SSE 14.8 mph 14.8 mph 44 % 0.0 in
16:51 32.6 °F 18.4 °F 1010.7 in West 3.7 mph 3.9 mph 43 % 0.0 in
16:56 32.7 °F 18.5 °F 1010.7 in SSW 9.3 mph 9.3 mph 43 % 0.0 in
17:01 32.2 °F 18.1 °F 1010.7 in South 11.1 mph 11.1 mph 43 % 0.0 in
17:06 32.6 °F 18.4 °F 1010.0 in SW 7.4 mph 7.4 mph 43 % 0.0 in
17:11 32.4 °F 17.8 °F 1010.0 in SSW 10.0 mph 10.0 mph 42 % 0.0 in
17:16 32.3 °F 17.8 °F 1010.0 in South 9.3 mph 9.3 mph 42 % 0.0 in
17:21 32.8 °F 18.2 °F 1010.0 in South 9.3 mph 9.3 mph 42 % 0.0 in
17:26 32.4 °F 17.8 °F 1010.0 in South 11.1 mph 11.1 mph 42 % 0.0 in
17:31 32.3 °F 17.8 °F 1010.0 in SSW 7.4 mph 7.4 mph 42 % 0.0 in
17:32 32.3 °F 17.8 °F 1010.0 in ESE 7.4 mph 7.4 mph 42 % 0.0 in
17:37 32.4 °F 17.8 °F 1010.0 in SW 11.9 mph 11.9 mph 42 % 0.0 in
17:42 32.2 °F 17.7 °F 1010.0 in South 7.4 mph 7.4 mph 42 % 0.0 in
17:47 32.5 °F 18.3 °F 1010.0 in SW 7.4 mph 7.4 mph 43 % 0.0 in
17:52 31.7 °F 17.6 °F 1010.0 in WSW 7.9 mph 7.9 mph 43 % 0.0 in
17:57 31.6 °F 17.8 °F 1010.0 in SSE 9.3 mph 9.3 mph 44 % 0.0 in
18:02 31.9 °F 18.1 °F 1010.0 in SW 12.6 mph 12.6 mph 44 % 0.0 in
18:07 31.4 °F 17.7 °F 1010.0 in SSW 10.3 mph 10.3 mph 44 % 0.0 in
18:12 31.4 °F 18.1 °F 1010.0 in SW 11.1 mph 11.1 mph 45 % 0.0 in
18:17 31.3 °F 17.9 °F 1010.0 in South 7.4 mph 7.4 mph 45 % 0.0 in
18:22 31.1 °F 17.8 °F 1010.0 in SW 13.0 mph 13.0 mph 45 % 0.0 in
18:27 31.0 °F 17.7 °F 1010.0 in South 18.5 mph 18.5 mph 45 % 0.0 in
18:32 30.7 °F 17.8 °F 1010.0 in SSW 14.8 mph 14.8 mph 46 % 0.0 in
18:37 30.7 °F 17.8 °F 1010.0 in SW 13.0 mph 13.0 mph 46 % 0.0 in
18:42 30.6 °F 17.7 °F 1010.0 in SE 9.7 mph 9.7 mph 46 % 0.0 in
18:47 30.6 °F 17.7 °F 1010.0 in South 13.0 mph 13.0 mph 46 % 0.0 in
18:52 30.2 °F 17.3 °F 1010.0 in SW 13.0 mph 13.0 mph 46 % 0.0 in
18:57 30.4 °F 17.5 °F 1010.0 in SSW 11.1 mph 11.1 mph 46 % 0.0 in
19:02 30.3 °F 17.4 °F 1010.0 in WSW 11.1 mph 11.1 mph 46 % 0.0 in
19:07 30.3 °F 17.4 °F 1010.0 in South 13.0 mph 13.0 mph 46 % 0.0 in
19:12 30.4 °F 17.5 °F 1010.0 in SSW 9.3 mph 9.3 mph 46 % 0.0 in
19:17 30.3 °F 17.4 °F 1010.0 in SSW 13.0 mph 13.0 mph 46 % 0.0 in
19:22 30.0 °F 17.1 °F 1010.0 in South 7.4 mph 7.4 mph 46 % 0.0 in
19:27 29.9 °F 17.4 °F 1010.0 in South 7.4 mph 7.4 mph 47 % 0.0 in
19:32 29.8 °F 17.3 °F 1010.0 in SSW 7.9 mph 7.9 mph 47 % 0.0 in
19:37 29.6 °F 17.1 °F 1010.0 in SW 7.4 mph 7.4 mph 47 % 0.0 in
19:42 29.5 °F 17.0 °F 1010.0 in WSW 7.4 mph 7.4 mph 47 % 0.0 in
19:47 29.4 °F 16.9 °F 1010.0 in SSW 7.4 mph 7.4 mph 47 % 0.0 in
19:52 29.3 °F 16.8 °F 1010.0 in SW 5.6 mph 5.6 mph 47 % 0.0 in
19:57 29.2 °F 16.7 °F 1010.0 in SW 10.0 mph 10.0 mph 47 % 0.0 in
20:02 28.9 °F 17.1 °F 1010.0 in SW 6.9 mph 6.9 mph 49 % 0.0 in
20:07 28.7 °F 17.2 °F 1009.0 in West 9.3 mph 9.3 mph 50 % 0.0 in
20:12 28.6 °F 17.2 °F 1009.0 in SW 5.6 mph 5.6 mph 50 % 0.0 in
20:17 28.6 °F 17.4 °F 1009.0 in SSW 9.3 mph 9.3 mph 51 % 0.0 in
20:22 28.4 °F 17.3 °F 1009.0 in SSW 7.4 mph 7.4 mph 51 % 0.0 in
20:27 28.3 °F 17.5 °F 1009.0 in SW 7.6 mph   52 % 0.0 in
20:32 28.2 °F 17.7 °F 1009.0 in WSW 3.7 mph 3.9 mph 53 % 0.0 in
20:33 28.2 °F 17.7 °F 1009.0 in WSW 3.7 mph 3.9 mph 53 % 0.0 in
20:35 23.3 °F 19.1 °F 1013.8 in Calm   1.6 mph 77 % 0.0 in
20:38 28.1 °F 17.6 °F 1010.0 in SSW 5.6 mph 5.6 mph 53 % 0.0 in
20:43 28.0 °F 17.8 °F 1010.0 in SSW 5.0 mph 5.0 mph 54 % 0.0 in
20:45 23.2 °F 19.2 °F 1013.8 in NNE 3.2 mph 4.8 mph 78 % 0.0 in
20:48 27.7 °F 17.6 °F 1010.0 in WSW 5.6 mph 5.6 mph 54 % 0.0 in
20:53 27.5 °F 17.7 °F 1010.0 in SW 3.7 mph 3.7 mph 55 % 0.0 in
20:55 23.1 °F 19.1 °F 1013.8 in NE 1.6 mph 3.2 mph 78 % 0.0 in
20:58 27.4 °F 17.8 °F 1010.0 in SW 5.6 mph 5.6 mph 56 % 0.0 in
21:03 27.2 °F 17.7 °F 1010.0 in West 11.1 mph 11.1 mph 56 % 0.0 in
21:05 23.0 °F 19.2 °F 1013.8 in Calm   1.6 mph 79 % 0.0 in
21:08 27.1 °F 17.8 °F 1010.0 in SSW 7.4 mph 7.4 mph 57 % 0.0 in
21:13 26.9 °F 17.9 °F 1010.0 in SW 5.6 mph 5.6 mph 58 % 0.0 in
21:15 22.9 °F 19.3 °F 1013.8 in Calm   1.6 mph 80 % 0.0 in
21:18 26.8 °F 17.8 °F 1010.0 in SW 7.4 mph 7.4 mph 58 % 0.0 in
21:23 26.7 °F 17.8 °F 1010.0 in SW 5.6 mph 5.8 mph 58 % 0.0 in
21:25 22.8 °F 18.9 °F 1013.8 in NE 1.6 mph 1.6 mph 79 % 0.0 in
21:28 26.5 °F 17.8 °F 1010.0 in SSW 5.3 mph 5.3 mph 59 % 0.0 in
21:33 26.4 °F 17.7 °F 1010.0 in SW 5.6 mph 5.6 mph 59 % 0.0 in
21:35 22.7 °F 18.9 °F 1013.8 in Calm   1.6 mph 79 % 0.0 in
21:38 26.2 °F 17.6 °F 1010.7 in SW 5.6 mph 5.6 mph 59 % 0.0 in
21:43 26.1 °F 17.7 °F 1010.7 in WSW 3.7 mph 3.7 mph 60 % 0.0 in
21:45 22.5 °F 18.9 °F 1013.8 in Calm   1.6 mph 80 % 0.0 in
21:48 26.0 °F 17.6 °F 1010.7 in SW 3.7 mph 3.7 mph 60 % 0.0 in
21:53 26.0 °F 17.6 °F 1010.7 in SW 3.7 mph 3.7 mph 60 % 0.0 in
21:55 22.4 °F 18.8 °F 1012.8 in Calm     80 % 0.0 in
21:58 25.9 °F 17.8 °F 1010.7 in WSW 1.9 mph 2.3 mph 61 % 0.0 in
22:03 25.9 °F 17.8 °F 1010.7 in SW 3.7 mph 3.7 mph 61 % 0.0 in
22:05 22.4 °F 19.0 °F 1013.8 in Calm     81 % 0.0 in
22:08 25.8 °F 17.7 °F 1011.7 in WSW 3.7 mph 3.7 mph 61 % 0.0 in
22:13 25.6 °F 17.8 °F 1011.7 in SW 3.5 mph   62 % 0.0 in
22:15 22.4 °F 19.0 °F 1013.8 in Calm   1.6 mph 81 % 0.0 in
22:18 25.6 °F 17.8 °F 1011.7 in SW 3.7 mph 3.7 mph 62 % 0.0 in
22:23 25.5 °F 17.7 °F 1011.7 in SW 3.7 mph 3.7 mph 62 % 0.0 in
22:25 22.3 °F 18.9 °F 1013.8 in Calm     81 % 0.0 in
22:28 25.5 °F 17.7 °F 1011.7 in SW 2.3 mph 2.3 mph 62 % 0.0 in
22:33 25.4 °F 17.6 °F 1011.7 in SW 3.7 mph 3.7 mph 62 % 0.0 in
22:35 22.2 °F 19.0 °F 1013.8 in Calm     82 % 0.0 in
22:38 25.2 °F 17.7 °F 1012.8 in SW 3.7 mph 3.7 mph 63 % 0.0 in
22:43 25.1 °F 17.6 °F 1012.8 in SW 1.9 mph 1.9 mph 63 % 0.0 in
22:45 22.2 °F 19.0 °F 1013.8 in Calm   1.6 mph 82 % 0.0 in
22:48 25.1 °F 17.8 °F 1012.8 in SSW 3.7 mph 3.7 mph 64 % 0.0 in
22:53 24.9 °F 18.1 °F 1010.7 in Calm     66 % 0.0 in
22:55 22.2 °F 19.0 °F 1013.8 in Calm   1.6 mph 82 % 0.0 in
22:58 24.9 °F 18.1 °F 1010.7 in WSW 1.9 mph   66 % 0.0 in
23:03 24.9 °F 18.1 °F 1010.7 in WSW 4.7 mph 4.7 mph 66 % 0.0 in
23:05 22.1 °F 18.9 °F 1013.8 in Calm     82 % 0.0 in
23:08 24.8 °F 18.0 °F 1011.7 in WSW 5.6 mph 5.6 mph 66 % 0.0 in
23:13 24.7 °F 18.2 °F 1011.7 in SW 1.9 mph 1.9 mph 67 % 0.0 in
23:15 22.1 °F 18.9 °F 1013.8 in Calm     82 % 0.0 in
23:18 24.7 °F 18.4 °F 1011.7 in SW 1.9 mph   68 % 0.0 in
23:23 24.6 °F 18.6 °F 1011.7 in Calm     69 % 0.0 in
23:25 22.1 °F 19.1 °F 1013.8 in Calm     83 % 0.0 in
23:28 24.5 °F 18.4 °F 1011.7 in Calm     69 % 0.0 in
23:33 24.5 °F 18.7 °F 1011.7 in NNE 1.9 mph   70 % 0.0 in
23:35 22.0 °F 19.0 °F 1012.8 in NE 1.6 mph 3.2 mph 83 % 0.0 in
23:38 24.4 °F 18.8 °F 1012.8 in Calm     71 % 0.0 in
23:43 24.3 °F 18.7 °F 1012.8 in Calm     71 % 0.0 in
23:45 21.9 °F 18.9 °F 1012.8 in Calm     83 % 0.0 in
23:48 24.3 °F 18.9 °F 1012.8 in NNW 1.9 mph   72 % 0.0 in
23:53 24.3 °F 19.2 °F 1012.8 in Calm     73 % 0.0 in
23:55 21.7 °F 18.7 °F 1012.8 in Calm     83 % 0.0 in
23:58 24.3 °F 19.2 °F 1012.8 in Calm     73 % 0.0 in
Meteo Sesrovires
Elogis d' Weather Underground - 3.75 mb

Guio original per  Jim McMurry - jmcmurry@mwt.net Adaptat per a la plantilla per  Wim van der Kuil - Leuven-Template.eu

Trobareu la nostra informacio del temps tambe a:

Weather Underground

AWEKAS